Time;durP1;ratioP1;P1;durP2;ratioP2;P2;SDS_P1;SDS_P2;PMS_P1;PMS_P2;Temp;Humidity;BMP_temperature;BMP_pressure;BME280_temperature;BME280_humidity;BME280_pressure;Samples;Min_cycle;Max_cycle;Signal;HPM_P1;HPM_P2
2023/12/03 00:02:29;;;;;;;11.30;6.77;;;1.40;99.90;;;;;;10417506;28;20193;-81
2023/12/03 00:07:50;;;;;;;10.60;6.70;;;1.50;99.90;;;;;;10417230;28;20201;-81
2023/12/03 00:13:12;;;;;;;11.73;7.20;;;1.50;99.90;;;;;;10399391;28;20269;-83
2023/12/03 00:18:33;;;;;;;12.83;8.63;;;1.50;99.90;;;;;;10422376;28;20221;-81
2023/12/03 00:23:55;;;;;;;14.17;8.80;;;1.40;99.90;;;;;;10414367;28;20272;-84
2023/12/03 00:29:16;;;;;;;11.63;8.07;;;1.40;99.90;;;;;;10400440;28;20193;-83
2023/12/03 00:34:37;;;;;;;10.00;7.67;;;1.50;99.90;;;;;;10414223;28;20239;-82
2023/12/03 00:39:58;;;;;;;10.07;6.50;;;1.50;99.90;;;;;;10399855;28;20223;-80
2023/12/03 00:45:21;;;;;;;7.10;5.30;;;1.50;99.90;;;;;;10412664;28;20204;-80
2023/12/03 00:50:42;;;;;;;6.80;5.33;;;1.50;99.90;;;;;;10417527;28;20468;-81
2023/12/03 00:56:04;;;;;;;7.50;5.60;;;1.50;99.90;;;;;;10395258;28;20264;-82
2023/12/03 01:01:25;;;;;;;6.17;4.77;;;1.50;99.90;;;;;;10415822;28;20197;-85
2023/12/03 01:06:46;;;;;;;8.00;5.03;;;1.50;91.70;;;;;;10419650;28;20217;-84
2023/12/03 01:12:08;;;;;;;6.10;4.30;;;1.50;99.90;;;;;;10401497;28;20200;-84
2023/12/03 01:17:29;;;;;;;6.13;4.17;;;1.50;99.90;;;;;;10412592;28;20227;-83
2023/12/03 01:22:50;;;;;;;4.10;3.30;;;1.60;99.90;;;;;;10431558;28;20201;-85
2023/12/03 01:28:13;;;;;;;4.77;3.50;;;1.60;99.90;;;;;;10405420;28;20497;-83
2023/12/03 01:33:34;;;;;;;5.50;3.50;;;1.60;50.40;;;;;;10412327;28;20283;-84
2023/12/03 01:38:55;;;;;;;5.47;3.47;;;1.50;1.00;;;;;;10451274;28;20230;-83
2023/12/03 01:44:17;;;;;;;4.97;3.50;;;1.50;99.90;;;;;;10424660;28;20223;-84
2023/12/03 01:49:38;;;;;;;4.47;3.30;;;1.50;99.90;;;;;;10454955;28;20237;-85
2023/12/03 01:55:00;;;;;;;4.40;2.90;;;1.50;62.10;;;;;;10424336;28;20200;-82
2023/12/03 02:00:21;;;;;;;3.20;2.50;;;1.50;99.90;;;;;;10411049;28;20252;-85
2023/12/03 02:05:48;;;;;;;3.43;2.27;;;1.50;1.00;;;;;;10388956;28;20205;-81
2023/12/03 02:11:09;;;;;;;2.77;1.93;;;1.40;99.90;;;;;;10409373;28;20399;-82
2023/12/03 02:16:32;;;;;;;4.00;2.00;;;1.40;99.90;;;;;;10410254;28;20217;-85
2023/12/03 02:21:54;;;;;;;3.67;2.50;;;1.40;99.90;;;;;;10459590;28;20439;-83
2023/12/03 02:27:15;;;;;;;3.60;2.40;;;1.40;99.90;;;;;;10451274;28;20216;-84
2023/12/03 02:32:36;;;;;;;5.83;2.83;;;1.50;99.90;;;;;;10409414;28;20231;-82
2023/12/03 02:37:57;;;;;;;4.93;3.20;;;1.40;99.90;;;;;;10412033;28;20220;-82
2023/12/03 02:43:19;;;;;;;2.60;2.07;;;1.30;99.90;;;;;;10395629;28;20196;-82
2023/12/03 02:48:40;;;;;;;3.00;2.37;;;1.40;99.90;;;;;;10371499;28;20291;-82
2023/12/03 02:54:01;;;;;;;5.00;3.03;;;1.40;99.90;;;;;;10354958;28;20185;-82
2023/12/03 02:59:22;;;;;;;4.47;3.10;;;1.30;99.90;;;;;;10354976;28;20243;-82
2023/12/03 03:04:43;;;;;;;6.33;3.60;;;1.30;1.00;;;;;;10406214;28;20195;-81
2023/12/03 03:10:05;;;;;;;6.80;3.47;;;1.10;99.90;;;;;;10381057;28;20383;-81
2023/12/03 03:15:26;;;;;;;4.53;3.50;;;1.10;1.00;;;;;;10395953;28;20252;-82
2023/12/03 03:20:47;;;;;;;5.60;3.80;;;1.00;1.00;;;;;;10371780;28;20484;-83
2023/12/03 03:26:09;;;;;;;6.50;4.23;;;1.00;99.90;;;;;;10362344;28;20300;-82
2023/12/03 03:31:30;;;;;;;6.47;4.37;;;1.00;1.00;;;;;;10381575;28;20562;-84
2023/12/03 03:36:51;;;;;;;8.73;4.70;;;1.00;99.90;;;;;;10402085;28;20232;-82
2023/12/03 03:42:12;;;;;;;9.03;4.93;;;1.00;1.00;;;;;;10416455;28;20510;-82
2023/12/03 03:47:35;;;;;;;7.13;5.00;;;0.90;1.00;;;;;;10407460;28;20215;-83
2023/12/03 03:52:56;;;;;;;5.33;3.93;;;0.70;1.00;;;;;;10387790;28;20471;-84
2023/12/03 03:58:18;;;;;;;8.70;4.87;;;0.60;14.20;;;;;;10404525;28;20238;-82
2023/12/03 04:03:39;;;;;;;5.70;3.70;;;0.40;1.00;;;;;;10403361;28;20200;-82
2023/12/03 04:09:00;;;;;;;6.90;3.93;;;0.30;15.10;;;;;;10415223;28;20202;-81
2023/12/03 04:14:22;;;;;;;5.43;3.40;;;0.30;55.60;;;;;;10387427;28;20227;-83
2023/12/03 04:19:43;;;;;;;4.27;2.83;;;0.20;99.90;;;;;;10376112;28;20535;-81
2023/12/03 04:25:05;;;;;;;3.53;2.47;;;0.10;1.00;;;;;;10379226;28;20434;-81
2023/12/03 04:30:26;;;;;;;3.97;2.83;;;0.20;1.00;;;;;;10358637;28;20204;-82
2023/12/03 04:35:47;;;;;;;4.83;3.17;;;0.10;1.00;;;;;;10406179;28;20243;-81
2023/12/03 04:41:08;;;;;;;5.13;3.00;;;0.10;1.00;;;;;;10400510;28;20488;-82
2023/12/03 04:46:29;;;;;;;3.30;2.53;;;0.00;27.70;;;;;;10399798;28;20207;-81
2023/12/03 04:51:50;;;;;;;5.03;3.10;;;0.00;1.00;;;;;;10402011;28;20231;-82
2023/12/03 04:57:12;;;;;;;4.80;3.13;;;-0.10;99.90;;;;;;10415816;28;20306;-82
2023/12/03 05:02:33;;;;;;;4.57;3.47;;;0.00;74.30;;;;;;10414677;28;20245;-81
2023/12/03 05:07:54;;;;;;;5.33;3.37;;;-0.10;99.90;;;;;;10429384;28;20196;-83
2023/12/03 05:13:16;;;;;;;3.77;3.20;;;-0.20;1.00;;;;;;10401442;28;20226;-81
2023/12/03 05:18:37;;;;;;;4.70;3.20;;;-0.20;99.90;;;;;;10383914;28;20441;-81
2023/12/03 05:23:58;;;;;;;5.77;3.17;;;-0.20;1.00;;;;;;10411837;28;20199;-82
2023/12/03 05:29:21;;;;;;;5.70;3.57;;;-0.20;1.00;;;;;;10411877;28;20202;-82
2023/12/03 05:34:44;;;;;;;6.13;3.30;;;-0.10;99.90;;;;;;10423756;28;20248;-82
2023/12/03 05:40:07;;;;;;;5.20;3.20;;;-0.10;47.30;;;;;;10411354;28;20357;-81
2023/12/03 05:45:28;;;;;;;5.73;2.77;;;-0.10;1.00;;;;;;10399476;28;20222;-81
2023/12/03 05:50:49;;;;;;;4.63;2.80;;;0.00;1.00;;;;;;10399814;28;20238;-82
2023/12/03 05:56:11;;;;;;;2.83;2.30;;;0.00;99.90;;;;;;10397019;28;20200;-81
2023/12/03 06:01:32;;;;;;;3.13;2.60;;;0.10;99.90;;;;;;10398389;28;20438;-81
2023/12/03 06:06:54;;;;;;;3.13;2.40;;;0.10;1.00;;;;;;10429677;28;20247;-82
2023/12/03 06:12:15;;;;;;;3.00;2.30;;;0.10;1.00;;;;;;10396390;28;20222;-83
2023/12/03 06:17:36;;;;;;;3.73;2.70;;;0.10;1.00;;;;;;10368163;28;20227;-81
2023/12/03 06:22:57;;;;;;;4.03;2.63;;;0.00;1.00;;;;;;10424105;28;20191;-83
2023/12/03 06:28:19;;;;;;;4.20;2.53;;;0.00;1.00;;;;;;10395426;28;20620;-81
2023/12/03 06:33:40;;;;;;;5.57;2.63;;;0.00;99.90;;;;;;10395750;28;20242;-82
2023/12/03 06:39:01;;;;;;;4.47;2.70;;;0.10;99.90;;;;;;10382481;28;20287;-82
2023/12/03 06:44:23;;;;;;;4.10;2.83;;;0.10;99.90;;;;;;10382493;28;20256;-79
2023/12/03 06:49:47;;;;;;;5.00;2.80;;;0.20;91.30;;;;;;10384102;28;20235;-81
2023/12/03 06:55:08;;;;;;;2.87;2.20;;;0.30;43.40;;;;;;10367802;28;20283;-82
2023/12/03 07:00:30;;;;;;;2.57;1.93;;;0.30;1.00;;;;;;10356190;28;20256;-80
2023/12/03 07:05:51;;;;;;;2.33;2.10;;;0.30;16.10;;;;;;10362354;28;20491;-79
2023/12/03 07:11:13;;;;;;;3.50;2.67;;;0.40;99.90;;;;;;10371445;28;20203;-80
2023/12/03 07:16:34;;;;;;;5.83;3.10;;;0.30;23.30;;;;;;10418487;28;20220;-81
2023/12/03 07:21:55;;;;;;;6.73;4.03;;;0.40;1.00;;;;;;10433428;28;20200;-78
2023/12/03 07:27:18;;;;;;;5.57;3.70;;;0.40;1.00;;;;;;10413296;28;20199;-82
2023/12/03 07:32:40;;;;;;;3.70;3.30;;;0.40;1.00;;;;;;10398331;28;20238;-81
2023/12/03 07:38:01;;;;;;;5.57;3.23;;;0.50;1.00;;;;;;10408304;28;20236;-82
2023/12/03 07:43:22;;;;;;;5.87;3.27;;;0.50;1.00;;;;;;10398087;28;20197;-81
2023/12/03 07:48:45;;;;;;;4.17;3.03;;;0.50;1.00;;;;;;10397649;28;20210;-82
2023/12/03 07:54:06;;;;;;;3.90;3.00;;;0.50;1.00;;;;;;10393828;28;20217;-82
2023/12/03 07:59:28;;;;;;;4.10;2.73;;;0.60;1.00;;;;;;10396142;28;20273;-80
2023/12/03 08:04:49;;;;;;;5.23;3.07;;;0.70;1.00;;;;;;10351522;28;20200;-84
2023/12/03 08:10:12;;;;;;;4.33;3.27;;;0.80;99.90;;;;;;10395537;28;20208;-81
2023/12/03 08:15:33;;;;;;;19.30;8.47;;;0.70;1.00;;;;;;10415447;28;20428;-81
2023/12/03 08:20:54;;;;;;;15.90;8.63;;;0.80;99.90;;;;;;10388319;28;20231;-80
2023/12/03 08:26:15;;;;;;;8.47;5.70;;;0.90;99.90;;;;;;10400237;28;20208;-80
2023/12/03 08:31:36;;;;;;;8.33;4.77;;;0.90;99.90;;;;;;10399434;28;20219;-81
2023/12/03 08:36:58;;;;;;;5.33;3.47;;;1.00;99.90;;;;;;10433224;28;20286;-81
2023/12/03 08:42:19;;;;;;;7.10;4.10;;;1.10;55.40;;;;;;10385839;28;20196;-80
2023/12/03 08:47:41;;;;;;;5.63;4.03;;;1.00;99.90;;;;;;10413783;28;20237;-84
2023/12/03 08:53:03;;;;;;;6.70;4.47;;;1.20;99.90;;;;;;10402069;28;20245;-84
2023/12/03 08:58:24;;;;;;;6.17;4.37;;;1.20;99.90;;;;;;10399625;28;20235;-84
2023/12/03 09:03:45;;;;;;;13.67;6.80;;;1.30;99.90;;;;;;10384870;28;20204;-83
2023/12/03 09:09:06;;;;;;;14.00;6.60;;;1.30;99.90;;;;;;10411535;28;20209;-81
2023/12/03 09:14:28;;;;;;;13.47;5.53;;;1.30;99.90;;;;;;10398105;28;20232;-82
2023/12/03 09:19:49;;;;;;;7.53;4.53;;;1.40;56.50;;;;;;10430376;28;20271;-82
2023/12/03 09:25:10;;;;;;;7.53;4.83;;;1.40;1.00;;;;;;10397435;28;20197;-81
2023/12/03 09:30:31;;;;;;;9.17;4.80;;;1.50;1.00;;;;;;10430782;28;20280;-79
2023/12/03 09:35:53;;;;;;;21.37;8.13;;;1.60;1.00;;;;;;10416397;28;20296;-80
2023/12/03 09:41:19;;;;;;;13.50;6.87;;;1.70;1.00;;;;;;10426558;28;20248;-80
2023/12/03 09:46:42;;;;;;;20.03;9.33;;;1.90;1.00;;;;;;10397185;28;20217;-80
2023/12/03 09:52:06;;;;;;;13.43;5.57;;;2.10;1.00;;;;;;10396803;28;20287;-80
2023/12/03 09:57:29;;;;;;;5.70;4.03;;;2.30;1.00;;;;;;10413136;28;20520;-82
2023/12/03 10:02:53;;;;;;;7.77;4.50;;;2.20;1.00;;;;;;10412963;28;20205;-81
2023/12/03 10:08:14;;;;;;;4.50;2.90;;;2.20;1.00;;;;;;10395707;28;20216;-81
2023/12/03 10:13:36;;;;;;;7.17;3.17;;;2.20;1.00;;;;;;10429172;28;20197;-82
2023/12/03 10:18:57;;;;;;;5.73;3.20;;;2.00;1.00;;;;;;10428611;28;20233;-81
2023/12/03 10:24:21;;;;;;;4.93;2.87;;;1.90;1.00;;;;;;10395906;28;20200;-82
2023/12/03 10:29:45;;;;;;;4.97;3.40;;;1.70;1.00;;;;;;10394958;28;20193;-82
2023/12/03 10:35:08;;;;;;;4.93;3.30;;;1.60;1.00;;;;;;10395184;28;20201;-82
2023/12/03 10:40:32;;;;;;;9.37;3.50;;;1.60;1.00;;;;;;10408262;28;20229;-81
2023/12/03 10:45:53;;;;;;;4.77;3.20;;;1.60;1.00;;;;;;10411463;28;20200;-82
2023/12/03 10:51:14;;;;;;;6.27;3.80;;;1.50;1.00;;;;;;10410790;28;20258;-81
2023/12/03 10:56:36;;;;;;;4.70;3.37;;;1.40;99.90;;;;;;10397081;28;20196;-81
2023/12/03 11:02:01;;;;;;;4.93;3.17;;;1.40;99.90;;;;;;10397080;28;20194;-81
2023/12/03 11:07:23;;;;;;;4.63;3.50;;;1.40;1.00;;;;;;10394484;28;20235;-81
2023/12/03 11:12:46;;;;;;;5.27;3.23;;;1.40;69.50;;;;;;10394664;28;20372;-81
2023/12/03 11:18:09;;;;;;;4.50;3.30;;;1.40;99.90;;;;;;10411441;28;20231;-81
2023/12/03 11:23:46;;;;;;;4.33;3.27;;;1.40;15.00;;;;;;10429203;28;20263;-81
2023/12/03 11:29:07;;;;;;;5.93;3.53;;;1.30;99.90;;;;;;10397833;28;20220;-81
2023/12/03 11:34:29;;;;;;;4.53;3.13;;;1.40;99.90;;;;;;10432427;28;20185;-81
2023/12/03 11:39:50;;;;;;;5.20;3.53;;;1.50;78.10;;;;;;10426825;28;20221;-82
2023/12/03 11:45:29;;;;;;;4.77;3.20;;;1.50;32.00;;;;;;10452561;28;20204;-83
2023/12/03 11:50:50;;;;;;;4.87;3.70;;;1.40;1.00;;;;;;10434914;28;20311;-81
2023/12/03 11:56:11;;;;;;;4.53;3.50;;;1.20;99.90;;;;;;10434450;28;20197;-82
2023/12/03 12:01:33;;;;;;;6.53;3.93;;;1.20;1.00;;;;;;10434035;28;20251;-82
2023/12/03 12:06:55;;;;;;;5.77;3.60;;;1.20;99.90;;;;;;10400800;28;20189;-82
2023/12/03 12:12:16;;;;;;;4.67;3.37;;;1.10;1.00;;;;;;10415637;28;20231;-81
2023/12/03 12:17:38;;;;;;;4.33;3.03;;;1.10;1.00;;;;;;10414781;28;20231;-81
2023/12/03 12:22:59;;;;;;;4.00;2.83;;;1.10;1.00;;;;;;10433675;28;20271;-81
2023/12/03 12:28:20;;;;;;;5.10;3.70;;;1.00;1.00;;;;;;10419976;28;20203;-82
2023/12/03 12:33:52;;;;;;;5.27;3.50;;;1.00;1.00;;;;;;10442992;28;20193;-80
2023/12/03 12:39:25;;;;;;;5.37;3.40;;;1.10;1.00;;;;;;10410398;28;20231;-80
2023/12/03 12:44:47;;;;;;;4.87;3.27;;;1.10;1.00;;;;;;10432860;28;20292;-79
2023/12/03 12:50:08;;;;;;;5.10;3.60;;;1.30;99.90;;;;;;10413732;28;20235;-79
2023/12/03 12:55:31;;;;;;;6.20;4.37;;;1.40;99.90;;;;;;10428823;28;20248;-79
2023/12/03 13:00:52;;;;;;;7.03;3.83;;;1.40;1.00;;;;;;10399153;28;20232;-81
2023/12/03 13:06:13;;;;;;;5.73;4.60;;;1.30;99.90;;;;;;10431767;28;20468;-81
2023/12/03 13:11:35;;;;;;;8.87;5.50;;;1.30;1.00;;;;;;10368874;28;20485;-81
2023/12/03 13:16:56;;;;;;;7.53;4.87;;;1.20;1.00;;;;;;10374045;28;20197;-82
2023/12/03 13:22:17;;;;;;;6.87;4.07;;;1.20;1.00;;;;;;10382592;28;20247;-81
2023/12/03 13:27:40;;;;;;;5.97;3.67;;;1.30;1.00;;;;;;10387165;28;20202;-81
2023/12/03 13:33:01;;;;;;;7.67;3.80;;;1.20;1.00;;;;;;10409780;28;20288;-81
2023/12/03 13:38:22;;;;;;;6.67;3.77;;;1.30;1.00;;;;;;10397891;28;20304;-81
2023/12/03 13:43:43;;;;;;;5.67;3.90;;;1.30;1.00;;;;;;10398439;28;20197;-81
2023/12/03 13:49:04;;;;;;;11.17;6.67;;;1.30;1.00;;;;;;10410160;28;20231;-80
2023/12/03 13:54:26;;;;;;;8.43;4.63;;;1.40;1.00;;;;;;10383428;28;20197;-81
2023/12/03 13:59:47;;;;;;;6.73;3.83;;;1.50;1.00;;;;;;10396664;28;20307;-81
2023/12/03 14:05:08;;;;;;;6.13;3.73;;;1.40;1.00;;;;;;10410716;28;20386;-81
2023/12/03 14:10:32;;;;;;;4.87;3.60;;;1.30;1.00;;;;;;10385662;28;20226;-84
2023/12/03 14:15:56;;;;;;;6.80;4.03;;;1.00;27.90;;;;;;10395827;28;20225;-81
2023/12/03 14:21:17;;;;;;;5.53;4.00;;;0.90;99.90;;;;;;10387964;28;20229;-81
2023/12/03 14:26:38;;;;;;;5.03;3.00;;;0.90;1.00;;;;;;10397933;28;20192;-81
2023/12/03 14:32:00;;;;;;;6.77;3.60;;;0.90;99.90;;;;;;10409276;28;20193;-82
2023/12/03 14:37:21;;;;;;;6.37;4.30;;;0.90;99.90;;;;;;10401906;28;20197;-81
2023/12/03 14:42:42;;;;;;;5.73;4.27;;;0.90;99.90;;;;;;10373103;28;20240;-82
2023/12/03 14:48:04;;;;;;;6.40;4.43;;;0.90;99.90;;;;;;10354585;28;20209;-81
2023/12/03 14:53:25;;;;;;;6.93;5.20;;;0.90;1.00;;;;;;10370807;28;20234;-82
2023/12/03 14:58:47;;;;;;;7.70;5.37;;;0.90;1.00;;;;;;10411060;28;20229;-81
2023/12/03 15:04:08;;;;;;;9.77;5.23;;;0.90;99.90;;;;;;10427643;28;20276;-81
2023/12/03 15:09:29;;;;;;;12.13;6.07;;;0.90;99.90;;;;;;10408372;28;20423;-82
2023/12/03 15:14:50;;;;;;;15.47;9.20;;;0.90;99.90;;;;;;10409303;28;20514;-81
2023/12/03 15:20:12;;;;;;;21.23;11.33;;;0.90;1.00;;;;;;10383624;28;20227;-81
2023/12/03 15:25:33;;;;;;;30.63;15.87;;;0.90;1.00;;;;;;10369433;28;20215;-82
2023/12/03 15:30:55;;;;;;;28.70;16.17;;;0.90;1.00;;;;;;10399532;28;20201;-79
2023/12/03 15:36:16;;;;;;;28.07;15.03;;;0.90;99.90;;;;;;10397058;28;20193;-80
2023/12/03 15:41:37;;;;;;;27.47;16.63;;;0.90;99.90;;;;;;10393731;28;20228;-79
2023/12/03 15:46:58;;;;;;;21.43;13.10;;;0.90;99.90;;;;;;10395893;28;20262;-83
2023/12/03 15:52:20;;;;;;;12.87;8.77;;;1.00;1.00;;;;;;10397128;28;20255;-79
2023/12/03 15:57:41;;;;;;;12.77;7.60;;;1.00;99.90;;;;;;10412936;28;20223;-80
2023/12/03 16:03:03;;;;;;;14.40;7.10;;;1.00;1.00;;;;;;10397132;28;20204;-86
2023/12/03 16:08:24;;;;;;;14.20;8.67;;;0.90;1.00;;;;;;10414621;28;20197;-79
2023/12/03 16:13:46;;;;;;;18.93;10.40;;;0.90;1.00;;;;;;10410728;28;20227;-81
2023/12/03 16:19:07;;;;;;;18.50;9.33;;;1.00;1.00;;;;;;10395674;28;20247;-81
2023/12/03 16:24:28;;;;;;;14.37;9.03;;;1.00;1.00;;;;;;10393050;28;20206;-80
2023/12/03 16:29:50;;;;;;;25.13;13.70;;;1.00;1.00;;;;;;10401322;28;20276;-82
2023/12/03 16:35:11;;;;;;;25.70;13.33;;;0.90;1.00;;;;;;10420653;28;20440;-80
2023/12/03 16:40:32;;;;;;;22.17;9.77;;;1.00;1.00;;;;;;10407140;28;20233;-82
2023/12/03 16:45:54;;;;;;;12.30;6.97;;;1.00;1.00;;;;;;10401095;28;20201;-83
2023/12/03 16:51:15;;;;;;;18.20;8.30;;;1.00;1.00;;;;;;10403916;28;20242;-83
2023/12/03 16:56:37;;;;;;;18.83;9.80;;;0.90;99.90;;;;;;10410045;28;20200;-83
2023/12/03 17:01:58;;;;;;;23.60;10.50;;;0.80;1.00;;;;;;10388109;28;20476;-83
2023/12/03 17:07:19;;;;;;;22.90;10.70;;;0.70;1.00;;;;;;10399461;28;20425;-80
2023/12/03 17:12:41;;;;;;;27.23;13.03;;;0.60;66.50;;;;;;10400158;28;20202;-81
2023/12/03 17:18:05;;;;;;;15.53;8.67;;;0.70;1.00;;;;;;10370667;28;20220;-80
2023/12/03 17:23:26;;;;;;;13.57;6.97;;;0.80;99.90;;;;;;10413637;28;20238;-81
2023/12/03 17:28:47;;;;;;;11.20;7.20;;;0.80;1.00;;;;;;10418770;28;20243;-84
2023/12/03 17:34:11;;;;;;;9.93;6.27;;;0.80;99.90;;;;;;10417881;28;20200;-83
2023/12/03 17:39:32;;;;;;;11.87;6.47;;;0.80;99.90;;;;;;10393695;28;20228;-83
2023/12/03 17:44:53;;;;;;;10.73;6.10;;;0.70;1.00;;;;;;10401345;28;20193;-82
2023/12/03 17:50:14;;;;;;;15.77;6.70;;;0.70;1.00;;;;;;10385183;28;20466;-85
2023/12/03 17:55:35;;;;;;;14.27;7.23;;;0.60;1.00;;;;;;10434518;28;20475;-83
2023/12/03 18:00:57;;;;;;;13.40;7.30;;;0.60;1.00;;;;;;10432360;28;20263;-82
2023/12/03 18:06:18;;;;;;;16.43;8.03;;;0.60;1.00;;;;;;10430395;28;20186;-84
2023/12/03 18:11:40;;;;;;;13.10;7.20;;;0.50;30.40;;;;;;10402397;28;20208;-86
2023/12/03 18:17:02;;;;;;;11.40;6.47;;;0.60;1.00;;;;;;10385318;28;20220;-84
2023/12/03 18:22:23;;;;;;;15.80;8.43;;;0.50;62.50;;;;;;10369623;28;20235;-82
2023/12/03 18:27:45;;;;;;;11.17;6.97;;;0.60;1.00;;;;;;10382336;28;20207;-82
2023/12/03 18:33:07;;;;;;;13.90;7.97;;;0.50;1.00;;;;;;10402430;28;20227;-82
2023/12/03 18:38:28;;;;;;;15.50;8.23;;;0.60;99.90;;;;;;10414969;28;20217;-81
2023/12/03 18:43:49;;;;;;;20.13;8.20;;;0.50;1.00;;;;;;10414064;28;20210;-80
2023/12/03 18:49:11;;;;;;;21.40;9.43;;;0.50;99.90;;;;;;10395791;28;20554;-80
2023/12/03 18:54:32;;;;;;;19.90;9.77;;;0.30;1.00;;;;;;10427744;28;20259;-81
2023/12/03 18:59:54;;;;;;;28.40;12.00;;;0.20;1.00;;;;;;10413450;28;20236;-80
2023/12/03 19:05:16;;;;;;;24.53;11.60;;;0.00;1.00;;;;;;10395456;28;20193;-80
2023/12/03 19:10:37;;;;;;;17.07;8.47;;;-0.10;1.00;;;;;;10399549;28;20216;-79
2023/12/03 19:15:59;;;;;;;12.33;6.53;;;-0.20;99.90;;;;;;10413015;28;20271;-80
2023/12/03 19:21:20;;;;;;;9.70;5.20;;;-0.30;99.90;;;;;;10395777;28;20233;-79
2023/12/03 19:26:41;;;;;;;6.97;3.83;;;-0.40;99.90;;;;;;10361358;28;20281;-81
2023/12/03 19:32:03;;;;;;;4.20;3.30;;;-0.50;1.00;;;;;;10357063;28;20196;-81
2023/12/03 19:37:24;;;;;;;6.23;3.27;;;-0.40;1.00;;;;;;10387768;28;20365;-80
2023/12/03 19:42:45;;;;;;;6.17;3.50;;;-0.50;99.90;;;;;;10396482;28;20247;-82
2023/12/03 19:48:06;;;;;;;6.83;4.17;;;-0.40;99.90;;;;;;10394397;28;20308;-80
2023/12/03 19:53:28;;;;;;;7.30;4.23;;;-0.20;99.90;;;;;;10395460;28;20232;-80
2023/12/03 19:58:49;;;;;;;7.40;4.70;;;-0.10;1.00;;;;;;10372836;28;20272;-80
2023/12/03 20:04:10;;;;;;;5.97;3.77;;;0.00;1.00;;;;;;10411987;28;20208;-83
2023/12/03 20:09:32;;;;;;;6.30;4.53;;;0.00;1.00;;;;;;10402983;28;20197;-81
2023/12/03 20:14:52;;;;;;;7.10;3.93;;;0.00;1.00;;;;;;10389578;28;20376;-80
2023/12/03 20:20:14;;;;;;;8.47;4.43;;;0.00;1.00;;;;;;10405754;28;20227;-81
2023/12/03 20:25:36;;;;;;;6.93;4.77;;;0.00;99.90;;;;;;10419269;28;20202;-84
2023/12/03 20:30:57;;;;;;;11.93;5.03;;;0.10;99.90;;;;;;10405243;28;20208;-80
2023/12/03 20:36:19;;;;;;;7.67;4.70;;;0.10;1.00;;;;;;10418600;28;20195;-82
2023/12/03 20:41:40;;;;;;;6.83;3.97;;;0.00;1.00;;;;;;10419162;28;20305;-82
2023/12/03 20:47:01;;;;;;;8.13;4.80;;;0.00;99.90;;;;;;10405872;28;20216;-86
2023/12/03 20:52:23;;;;;;;11.87;5.40;;;-0.10;99.90;;;;;;10399542;28;20243;-83
2023/12/03 20:57:44;;;;;;;13.07;6.33;;;-0.10;1.00;;;;;;10347907;28;20211;-80
2023/12/03 21:03:06;;;;;;;11.80;5.97;;;0.00;1.00;;;;;;10395191;28;20235;-83
2023/12/03 21:08:27;;;;;;;10.03;5.80;;;0.10;99.90;;;;;;10385149;28;20204;-82
2023/12/03 21:13:49;;;;;;;10.23;5.17;;;0.00;1.00;;;;;;10431269;28;20231;-82
2023/12/03 21:19:10;;;;;;;9.30;4.97;;;0.00;1.00;;;;;;10400604;28;20270;-83
2023/12/03 21:24:31;;;;;;;8.47;5.03;;;0.00;79.50;;;;;;10389495;28;20243;-81
2023/12/03 21:29:52;;;;;;;10.67;4.70;;;0.00;1.00;;;;;;10384086;28;20199;-82
2023/12/03 21:35:13;;;;;;;7.27;4.07;;;0.00;1.00;;;;;;10412503;28;20192;-83
2023/12/03 21:40:36;;;;;;;5.63;3.43;;;-0.10;1.00;;;;;;10373640;28;20251;-83
2023/12/03 21:45:57;;;;;;;4.03;2.73;;;-0.10;99.90;;;;;;10376600;28;20435;-84
2023/12/03 21:51:18;;;;;;;5.17;3.30;;;0.00;99.90;;;;;;10387013;28;20244;-82
2023/12/03 21:56:41;;;;;;;5.33;3.40;;;0.00;99.90;;;;;;10401813;28;20202;-83
2023/12/03 22:02:02;;;;;;;4.83;3.00;;;0.00;89.50;;;;;;10396296;28;20228;-81
2023/12/03 22:07:24;;;;;;;5.40;2.67;;;0.00;99.90;;;;;;10413666;28;20195;-81
2023/12/03 22:12:45;;;;;;;3.77;2.50;;;0.10;1.00;;;;;;10382327;28;20211;-80
2023/12/03 22:18:06;;;;;;;4.33;2.60;;;0.00;99.90;;;;;;10410700;28;20218;-81
2023/12/03 22:23:27;;;;;;;3.70;2.50;;;0.00;99.90;;;;;;10395781;28;20211;-84
2023/12/03 22:28:49;;;;;;;2.73;2.23;;;0.00;99.90;;;;;;10410004;28;20197;-82
2023/12/03 22:34:11;;;;;;;5.07;3.00;;;0.00;1.00;;;;;;10368295;28;20481;-81
2023/12/03 22:39:32;;;;;;;4.20;2.87;;;0.00;1.00;;;;;;10395224;28;20239;-82
2023/12/03 22:44:53;;;;;;;4.73;2.70;;;0.00;1.00;;;;;;10395441;28;20197;-82
2023/12/03 22:50:15;;;;;;;4.27;2.67;;;0.00;1.00;;;;;;10418702;28;20275;-80
2023/12/03 22:55:36;;;;;;;4.10;2.97;;;0.00;99.90;;;;;;10390969;28;20223;-83
2023/12/03 23:00:58;;;;;;;7.23;2.80;;;0.00;1.00;;;;;;10411222;28;20250;-83
2023/12/03 23:06:19;;;;;;;7.23;3.43;;;0.00;1.00;;;;;;10394611;28;20207;-82
2023/12/03 23:11:41;;;;;;;4.60;3.20;;;-0.10;1.00;;;;;;10425093;28;20282;-81
2023/12/03 23:17:02;;;;;;;3.87;2.70;;;-0.10;99.90;;;;;;10409810;28;20208;-82
2023/12/03 23:22:23;;;;;;;3.37;2.30;;;-0.10;1.00;;;;;;10422823;28;20230;-83
2023/12/03 23:27:44;;;;;;;3.97;3.07;;;0.00;36.60;;;;;;10427970;28;20250;-80
2023/12/03 23:33:05;;;;;;;3.70;2.47;;;-0.10;1.00;;;;;;10412143;28;20198;-80
2023/12/03 23:38:26;;;;;;;5.37;2.70;;;0.00;1.00;;;;;;10436948;28;20498;-80
2023/12/03 23:43:48;;;;;;;3.87;2.60;;;0.00;1.00;;;;;;10436163;28;20219;-80
2023/12/03 23:49:09;;;;;;;4.87;3.27;;;-0.10;1.00;;;;;;10430339;28;20377;-82
2023/12/03 23:54:32;;;;;;;6.13;2.70;;;-0.10;99.90;;;;;;10431516;28;20188;-81
2023/12/03 23:59:53;;;;;;;4.63;2.40;;;-0.20;1.00;;;;;;10422093;28;20219;-81
